createdAt,value
2023-12-17T00:00:57.537Z,44.97
2023-12-17T00:01:57.505Z,46.14
2023-12-17T00:03:17.162Z,47.21
2023-12-17T00:03:58.562Z,46.58
2023-12-17T00:04:57.538Z,45.53
2023-12-17T00:05:57.613Z,45.06
2023-12-17T00:06:57.512Z,47.75
2023-12-17T00:07:57.489Z,46.36
2023-12-17T00:08:57.471Z,45.47
2023-12-17T00:09:57.454Z,47.64
2023-12-17T00:10:57.494Z,49.24
2023-12-17T00:11:57.469Z,45.95
2023-12-17T00:12:57.452Z,48.02
2023-12-17T00:13:57.430Z,44.47
2023-12-17T00:14:57.459Z,47.87
2023-12-17T00:15:57.414Z,47.58
2023-12-17T00:16:57.447Z,48.23
2023-12-17T00:17:57.544Z,47.06
2023-12-17T00:18:57.500Z,44.76
2023-12-17T00:19:57.450Z,45.28
2023-12-17T00:20:57.425Z,45.11
2023-12-17T00:21:57.376Z,44.04
2023-12-17T00:22:57.401Z,44.47
2023-12-17T00:23:57.552Z,45.15
2023-12-17T00:24:57.353Z,45.90
2023-12-17T00:25:57.358Z,45.58
2023-12-17T00:26:57.370Z,47.73
2023-12-17T00:27:57.377Z,45.51
2023-12-17T00:28:57.340Z,46.30
2023-12-17T00:29:57.345Z,45.40
2023-12-17T00:30:57.358Z,43.77
2023-12-17T00:32:00.918Z,44.21
2023-12-17T00:32:57.406Z,44.93
2023-12-17T00:33:57.564Z,44.23
2023-12-17T00:34:57.280Z,43.59
2023-12-17T00:35:57.294Z,44.76
2023-12-17T00:36:57.286Z,44.42
2023-12-17T00:37:57.279Z,46.56
2023-12-17T00:38:57.273Z,44.76
2023-12-17T00:39:57.608Z,45.17
2023-12-17T00:40:57.293Z,44.02
2023-12-17T00:41:57.273Z,44.41
2023-12-17T00:42:57.266Z,43.95
2023-12-17T00:43:57.231Z,43.96
2023-12-17T00:44:57.294Z,43.94
2023-12-17T00:45:57.215Z,44.07
2023-12-17T00:46:57.217Z,43.53
2023-12-17T00:47:57.340Z,43.76
2023-12-17T00:48:57.339Z,44.83
2023-12-17T00:49:57.236Z,44.26
2023-12-17T00:50:57.233Z,46.88
2023-12-17T00:51:57.181Z,45.29
2023-12-17T00:52:57.160Z,44.05
2023-12-17T00:53:57.192Z,45.26
2023-12-17T00:54:57.173Z,45.07
2023-12-17T00:55:57.206Z,45.04
2023-12-17T00:56:57.213Z,44.93
2023-12-17T00:57:57.138Z,45.51
2023-12-17T00:58:57.155Z,46.43
2023-12-17T00:59:57.151Z,45.80
2023-12-17T01:00:57.222Z,46.40
2023-12-17T01:01:57.112Z,43.94
2023-12-17T01:02:57.186Z,46.28
2023-12-17T01:03:57.135Z,45.98
2023-12-17T01:04:57.081Z,44.81
2023-12-17T01:05:57.230Z,44.88
2023-12-17T01:06:57.073Z,44.61
2023-12-17T01:07:57.081Z,44.55
2023-12-17T01:08:57.129Z,45.28
2023-12-17T01:09:57.132Z,43.79
2023-12-17T01:10:57.112Z,46.19
2023-12-17T01:11:57.104Z,54.84
2023-12-17T01:12:57.036Z,50.26
2023-12-17T01:13:57.061Z,45.32
2023-12-17T01:14:57.092Z,45.23
2023-12-17T01:15:57.208Z,45.46
2023-12-17T01:16:57.057Z,45.90
2023-12-17T01:17:57.196Z,44.52
2023-12-17T01:18:57.092Z,45.15
2023-12-17T01:19:57.257Z,43.76
2023-12-17T01:20:57.012Z,44.13
2023-12-17T01:21:56.975Z,45.66
2023-12-17T01:22:57.015Z,44.90
2023-12-17T01:23:56.984Z,45.63
2023-12-17T01:24:56.959Z,45.30
2023-12-17T01:25:56.955Z,46.88
2023-12-17T01:26:57.038Z,43.77
2023-12-17T01:27:56.980Z,43.58
2023-12-17T01:28:56.932Z,44.25
2023-12-17T01:29:56.970Z,44.11
2023-12-17T01:30:56.957Z,45.64
2023-12-17T01:31:56.907Z,44.89
2023-12-17T01:32:57.070Z,43.65
2023-12-17T01:33:57.032Z,44.29
2023-12-17T01:34:56.908Z,43.15
2023-12-17T01:35:56.903Z,44.25
2023-12-17T01:36:56.874Z,45.09
2023-12-17T01:37:56.872Z,44.76
2023-12-17T01:38:56.962Z,45.33
2023-12-17T01:39:56.862Z,45.08
2023-12-17T01:40:56.856Z,45.12
2023-12-17T01:41:56.971Z,46.04
2023-12-17T01:42:56.833Z,45.46
2023-12-17T01:43:56.862Z,46.23
2023-12-17T01:44:56.915Z,44.85
2023-12-17T01:45:56.821Z,45.61
2023-12-17T01:46:56.807Z,45.98
2023-12-17T01:47:56.936Z,44.31
2023-12-17T01:48:56.883Z,45.89
2023-12-17T01:49:56.854Z,44.55
2023-12-17T01:50:56.841Z,45.58
2023-12-17T01:51:56.778Z,45.83
2023-12-17T01:52:56.799Z,46.48
2023-12-17T01:53:56.789Z,43.42
2023-12-17T01:54:56.802Z,45.38
2023-12-17T01:55:56.758Z,46.87
2023-12-17T01:56:56.789Z,47.99
2023-12-17T01:57:56.739Z,45.84
2023-12-17T01:58:56.723Z,44.20
2023-12-17T01:59:56.768Z,42.97
2023-12-17T02:00:57.017Z,45.51
2023-12-17T02:01:56.740Z,42.81
2023-12-17T02:02:56.814Z,43.94
2023-12-17T02:03:56.796Z,43.88
2023-12-17T02:04:56.683Z,45.72
2023-12-17T02:05:56.777Z,45.68
2023-12-17T02:06:56.794Z,45.71
2023-12-17T02:07:56.681Z,45.02
2023-12-17T02:08:56.705Z,45.00
2023-12-17T02:09:56.941Z,45.81
2023-12-17T02:10:56.669Z,44.00
2023-12-17T02:11:56.671Z,43.45
2023-12-17T02:12:56.641Z,42.72
2023-12-17T02:13:56.631Z,43.85
2023-12-17T02:14:56.680Z,45.75
2023-12-17T02:15:56.660Z,44.62
2023-12-17T02:16:56.614Z,44.46
2023-12-17T02:17:56.769Z,43.84
2023-12-17T02:18:56.747Z,43.63
2023-12-17T02:19:56.635Z,44.92
2023-12-17T02:20:56.990Z,45.33
2023-12-17T02:21:56.589Z,44.20
2023-12-17T02:22:56.582Z,46.12
2023-12-17T02:23:56.586Z,45.28
2023-12-17T02:24:56.584Z,46.19
2023-12-17T02:25:56.587Z,47.52
2023-12-17T02:26:56.642Z,44.24
2023-12-17T02:27:56.551Z,43.77
2023-12-17T02:28:56.540Z,44.56
2023-12-17T02:29:56.619Z,44.44
2023-12-17T02:30:56.596Z,45.94
2023-12-17T02:31:56.556Z,44.43
2023-12-17T02:32:56.609Z,45.00
2023-12-17T02:33:56.638Z,45.09
2023-12-17T02:34:56.504Z,44.47
2023-12-17T02:35:56.519Z,44.63
2023-12-17T02:36:56.525Z,45.13
2023-12-17T02:37:56.487Z,44.24
2023-12-17T02:38:56.544Z,43.17
2023-12-17T02:39:56.465Z,44.00
2023-12-17T02:40:56.480Z,43.93
2023-12-17T02:41:56.502Z,44.91
2023-12-17T02:42:56.506Z,45.33
2023-12-17T02:43:56.446Z,44.54
2023-12-17T02:44:56.483Z,50.90
2023-12-17T02:45:56.430Z,46.29
2023-12-17T02:46:56.449Z,45.00
2023-12-17T02:47:56.520Z,44.25
2023-12-17T02:48:56.884Z,46.08
2023-12-17T02:49:56.486Z,48.10
2023-12-17T02:50:56.409Z,47.80
2023-12-17T02:51:56.423Z,46.08
2023-12-17T02:52:56.384Z,55.77
2023-12-17T02:53:56.442Z,44.25
2023-12-17T02:54:56.754Z,44.01
2023-12-17T02:55:56.384Z,44.15
2023-12-17T02:56:56.387Z,44.18
2023-12-17T02:57:56.350Z,45.65
2023-12-17T02:58:56.371Z,44.10
2023-12-17T02:59:56.384Z,43.12
2023-12-17T03:00:56.358Z,43.65
2023-12-17T03:01:56.326Z,43.69
2023-12-17T03:02:56.414Z,43.81
2023-12-17T03:03:56.411Z,45.50
2023-12-17T03:04:56.387Z,44.74
2023-12-17T03:05:56.313Z,44.67
2023-12-17T03:06:56.285Z,44.55
2023-12-17T03:07:56.275Z,43.75
2023-12-17T03:08:56.274Z,45.61
2023-12-17T03:09:56.343Z,45.32
2023-12-17T03:10:56.264Z,43.92
2023-12-17T03:11:57.195Z,43.27
2023-12-17T03:12:56.256Z,43.88
2023-12-17T03:13:56.239Z,43.74
2023-12-17T03:14:56.260Z,43.57
2023-12-17T03:15:56.228Z,45.85
2023-12-17T03:16:56.216Z,45.45
2023-12-17T03:17:56.279Z,45.46
2023-12-17T03:18:56.848Z,44.31
2023-12-17T03:19:56.354Z,44.81
2023-12-17T03:20:56.193Z,44.18
2023-12-17T03:21:56.206Z,43.57
2023-12-17T03:22:56.185Z,42.96
2023-12-17T03:23:56.234Z,46.45
2023-12-17T03:24:56.192Z,44.27
2023-12-17T03:25:56.154Z,43.90
2023-12-17T03:26:56.140Z,45.63
2023-12-17T03:27:56.158Z,44.52
2023-12-17T03:28:56.159Z,45.78
2023-12-17T03:29:56.268Z,44.17
2023-12-17T03:30:56.156Z,44.22
2023-12-17T03:31:56.181Z,45.16
2023-12-17T03:32:56.208Z,44.81
2023-12-17T03:33:56.226Z,44.27
2023-12-17T03:34:56.129Z,44.08
2023-12-17T03:35:56.138Z,42.97
2023-12-17T03:36:56.081Z,44.14
2023-12-17T03:37:56.071Z,43.85
2023-12-17T03:38:56.117Z,44.11
2023-12-17T03:39:56.081Z,43.87
2023-12-17T03:40:56.060Z,44.39
2023-12-17T03:41:56.063Z,42.77
2023-12-17T03:42:56.066Z,43.22
2023-12-17T03:43:56.028Z,43.25
2023-12-17T03:44:56.083Z,43.22
2023-12-17T03:45:56.021Z,43.77
2023-12-17T03:46:56.017Z,44.52
2023-12-17T03:47:56.131Z,44.06
2023-12-17T03:48:56.147Z,44.17
2023-12-17T03:49:56.056Z,45.04
2023-12-17T03:50:56.032Z,45.54
2023-12-17T03:51:56.005Z,44.37
2023-12-17T03:52:55.969Z,45.07
2023-12-17T03:53:56.031Z,43.80
2023-12-17T03:54:55.976Z,44.55
2023-12-17T03:55:55.957Z,45.60
2023-12-17T03:56:55.976Z,43.27
2023-12-17T03:57:55.938Z,43.91
2023-12-17T03:58:55.932Z,43.39
2023-12-17T03:59:55.962Z,43.31
2023-12-17T04:00:55.964Z,45.41
2023-12-17T04:01:55.919Z,44.08
2023-12-17T04:02:56.003Z,45.39
2023-12-17T04:03:56.001Z,43.85
2023-12-17T04:04:55.915Z,43.79
2023-12-17T04:05:55.995Z,44.23
2023-12-17T04:06:55.888Z,45.50
2023-12-17T04:07:55.892Z,44.39
2023-12-17T04:08:56.232Z,44.61
2023-12-17T04:09:55.860Z,44.33
2023-12-17T04:10:55.857Z,45.59
2023-12-17T04:11:55.902Z,43.51
2023-12-17T04:12:55.858Z,44.23
2023-12-17T04:13:55.830Z,46.73
2023-12-17T04:14:55.856Z,45.81
2023-12-17T04:15:55.823Z,48.96
2023-12-17T04:16:55.879Z,43.90
2023-12-17T04:17:55.931Z,43.20
2023-12-17T04:18:55.951Z,44.72
2023-12-17T04:19:55.824Z,43.78
2023-12-17T04:20:55.792Z,44.04
2023-12-17T04:21:55.780Z,44.84
2023-12-17T04:22:55.827Z,44.71
2023-12-17T04:23:55.833Z,45.22
2023-12-17T04:24:55.759Z,45.09
2023-12-17T04:25:55.760Z,45.91
2023-12-17T04:26:55.778Z,44.36
2023-12-17T04:27:55.741Z,45.75
2023-12-17T04:28:55.759Z,44.65
2023-12-17T04:29:55.763Z,45.60
2023-12-17T04:30:55.755Z,45.33
2023-12-17T04:31:55.712Z,43.29
2023-12-17T04:32:55.965Z,44.10
2023-12-17T04:33:55.839Z,43.34
2023-12-17T04:34:55.690Z,45.07
2023-12-17T04:35:55.700Z,45.14
2023-12-17T04:36:55.686Z,44.86
2023-12-17T04:37:55.673Z,43.97
2023-12-17T04:38:55.677Z,44.16
2023-12-17T04:39:55.725Z,43.01
2023-12-17T04:40:55.662Z,46.57
2023-12-17T04:41:55.711Z,44.18
2023-12-17T04:42:55.635Z,46.23
2023-12-17T04:43:55.631Z,44.92
2023-12-17T04:44:55.630Z,43.21
2023-12-17T04:45:55.647Z,44.07
2023-12-17T04:46:55.623Z,43.37
2023-12-17T04:47:55.774Z,44.37
2023-12-17T04:48:55.741Z,45.14
2023-12-17T04:49:55.615Z,44.69
2023-12-17T04:50:55.659Z,45.57
2023-12-17T04:51:55.610Z,44.14
2023-12-17T04:52:55.575Z,44.29
2023-12-17T04:53:55.609Z,46.85
2023-12-17T04:54:55.573Z,45.34
2023-12-17T04:55:55.576Z,47.23
2023-12-17T04:56:55.823Z,46.33
2023-12-17T04:57:55.558Z,44.31
2023-12-17T04:58:55.549Z,44.36
2023-12-17T04:59:55.562Z,44.05
2023-12-17T05:00:55.561Z,45.03
2023-12-17T05:01:55.537Z,45.27
2023-12-17T05:02:55.591Z,44.77
2023-12-17T05:03:55.588Z,43.96
2023-12-17T05:04:55.584Z,46.25
2023-12-17T05:05:55.544Z,45.31
2023-12-17T05:06:55.568Z,44.95
2023-12-17T05:07:55.476Z,45.02
2023-12-17T05:08:55.507Z,47.12
2023-12-17T05:09:55.460Z,45.20
2023-12-17T05:10:55.456Z,45.94
2023-12-17T05:11:55.531Z,45.57
2023-12-17T05:12:55.457Z,45.55
2023-12-17T05:13:55.439Z,44.73
2023-12-17T05:14:55.509Z,43.79
2023-12-17T05:15:55.434Z,44.41
2023-12-17T05:16:55.413Z,46.22
2023-12-17T05:17:55.576Z,44.40
2023-12-17T05:18:55.548Z,44.90
2023-12-17T05:19:55.381Z,45.29
2023-12-17T05:20:55.401Z,44.20
2023-12-17T05:21:55.372Z,45.18
2023-12-17T05:22:55.362Z,45.32
2023-12-17T05:23:55.389Z,46.12
2023-12-17T05:24:55.348Z,45.62
2023-12-17T05:25:55.386Z,46.05
2023-12-17T05:26:55.377Z,49.71
2023-12-17T05:27:55.372Z,50.91
2023-12-17T05:28:55.334Z,46.11
2023-12-17T05:29:55.392Z,46.65
2023-12-17T05:30:55.442Z,44.39
2023-12-17T05:31:55.363Z,46.34
2023-12-17T05:32:55.452Z,45.15
2023-12-17T05:33:55.441Z,45.73
2023-12-17T05:34:55.300Z,46.09
2023-12-17T05:35:55.479Z,45.32
2023-12-17T05:36:55.278Z,46.58
2023-12-17T05:37:55.270Z,45.50
2023-12-17T05:38:55.292Z,45.96
2023-12-17T05:39:55.274Z,46.71
2023-12-17T05:40:55.325Z,46.20
2023-12-17T05:41:55.266Z,46.49
2023-12-17T05:42:55.247Z,46.52
2023-12-17T05:43:55.257Z,45.40
2023-12-17T05:44:55.300Z,46.43
2023-12-17T05:45:58.907Z,59.56
2023-12-17T05:46:55.256Z,54.49
2023-12-17T05:47:55.328Z,46.89
2023-12-17T05:48:55.442Z,43.74
2023-12-17T05:49:55.410Z,46.17
2023-12-17T05:50:55.265Z,45.30
2023-12-17T05:51:55.254Z,44.87
2023-12-17T05:52:55.171Z,45.66
2023-12-17T05:53:55.217Z,45.14
2023-12-17T05:54:55.155Z,44.89
2023-12-17T05:55:55.152Z,45.99
2023-12-17T05:56:55.224Z,46.54
2023-12-17T05:57:55.136Z,45.21
2023-12-17T05:58:55.136Z,45.69
2023-12-17T05:59:55.161Z,45.16
2023-12-17T06:00:55.142Z,43.53
2023-12-17T06:01:55.272Z,44.79
2023-12-17T06:02:55.143Z,44.95
2023-12-17T06:03:55.149Z,44.67
2023-12-17T06:04:55.090Z,45.18
2023-12-17T06:05:55.134Z,46.17
2023-12-17T06:06:55.300Z,45.66
2023-12-17T06:07:55.096Z,44.38
2023-12-17T06:08:55.087Z,44.81
2023-12-17T06:09:55.057Z,46.93
2023-12-17T06:10:55.050Z,46.10
2023-12-17T06:11:55.523Z,44.84
2023-12-17T06:12:55.042Z,45.26
2023-12-17T06:13:55.031Z,45.37
2023-12-17T06:14:55.049Z,47.46
2023-12-17T06:15:55.052Z,45.55
2023-12-17T06:16:55.312Z,46.62
2023-12-17T06:17:55.259Z,48.60
2023-12-17T06:18:55.169Z,50.71
2023-12-17T06:19:55.019Z,47.63
2023-12-17T06:20:55.011Z,44.91
2023-12-17T06:21:55.003Z,44.91
2023-12-17T06:22:54.980Z,45.86
2023-12-17T06:23:54.991Z,44.95
2023-12-17T06:24:54.959Z,46.42
2023-12-17T06:25:54.983Z,44.77
2023-12-17T06:26:55.073Z,45.44
2023-12-17T06:27:54.963Z,45.08
2023-12-17T06:28:55.702Z,45.71
2023-12-17T06:29:54.944Z,47.84
2023-12-17T06:30:54.991Z,45.38
2023-12-17T06:31:54.949Z,47.03
2023-12-17T06:32:55.104Z,46.99
2023-12-17T06:33:55.573Z,45.37
2023-12-17T06:34:54.909Z,45.76
2023-12-17T06:35:54.904Z,46.23
2023-12-17T06:36:54.893Z,46.04
2023-12-17T06:37:54.882Z,47.08
2023-12-17T06:38:54.932Z,45.60
2023-12-17T06:39:54.873Z,46.20
2023-12-17T06:40:54.866Z,45.38
2023-12-17T06:41:54.888Z,46.24
2023-12-17T06:42:54.856Z,46.24
2023-12-17T06:43:54.974Z,46.35
2023-12-17T06:44:54.914Z,46.30
2023-12-17T06:45:54.832Z,50.23
2023-12-17T06:46:54.830Z,46.63
2023-12-17T06:47:54.892Z,46.14
2023-12-17T06:48:54.869Z,45.36
2023-12-17T06:49:54.866Z,46.67
2023-12-17T06:50:54.859Z,45.77
2023-12-17T06:51:54.797Z,47.30
2023-12-17T06:52:54.779Z,45.82
2023-12-17T06:53:54.941Z,44.73
2023-12-17T06:54:54.776Z,44.75
2023-12-17T06:55:54.770Z,44.24
2023-12-17T06:56:54.871Z,44.87
2023-12-17T06:57:54.746Z,46.52
2023-12-17T06:58:54.783Z,45.32
2023-12-17T06:59:54.834Z,45.39
2023-12-17T07:00:54.801Z,46.04
2023-12-17T07:01:54.716Z,48.78
2023-12-17T07:02:54.787Z,46.97
2023-12-17T07:03:54.856Z,45.55
2023-12-17T07:04:54.806Z,45.46
2023-12-17T07:05:54.841Z,45.79
2023-12-17T07:06:54.691Z,46.36
2023-12-17T07:07:54.695Z,46.47
2023-12-17T07:08:54.727Z,46.75
2023-12-17T07:09:54.668Z,46.85
2023-12-17T07:10:54.659Z,46.62
2023-12-17T07:11:54.739Z,46.93
2023-12-17T07:12:54.640Z,46.49
2023-12-17T07:13:54.632Z,47.74
2023-12-17T07:14:54.714Z,47.92
2023-12-17T07:15:54.625Z,59.82
2023-12-17T07:16:56.838Z,54.93
2023-12-17T07:17:54.734Z,48.55
2023-12-17T07:18:54.777Z,46.68
2023-12-17T07:19:54.741Z,46.74
2023-12-17T07:20:54.833Z,45.93
2023-12-17T07:21:54.611Z,46.72
2023-12-17T07:22:54.582Z,50.11
2023-12-17T07:23:54.596Z,47.32
2023-12-17T07:24:54.560Z,47.66
2023-12-17T07:25:54.572Z,49.31
2023-12-17T07:26:54.737Z,53.43
2023-12-17T07:27:54.574Z,46.74
2023-12-17T07:28:54.570Z,47.10
2023-12-17T07:29:54.541Z,47.23
2023-12-17T07:30:54.562Z,46.81
2023-12-17T07:31:54.556Z,47.89
2023-12-17T07:32:54.777Z,45.88
2023-12-17T07:33:54.658Z,47.29
2023-12-17T07:34:55.215Z,48.40
2023-12-17T07:35:54.573Z,50.88
2023-12-17T07:36:54.490Z,48.83
2023-12-17T07:37:54.562Z,47.78
2023-12-17T07:38:54.561Z,47.77
2023-12-17T07:39:54.479Z,55.15
2023-12-17T07:40:54.578Z,47.83
2023-12-17T07:41:54.500Z,46.21
2023-12-17T07:42:55.060Z,46.70
2023-12-17T07:43:54.445Z,47.53
2023-12-17T07:44:54.493Z,46.05
2023-12-17T07:45:54.434Z,46.61
2023-12-17T07:46:54.604Z,46.96
2023-12-17T07:47:54.476Z,45.90
2023-12-17T07:48:54.532Z,47.21
2023-12-17T07:49:54.482Z,47.22
2023-12-17T07:50:54.424Z,46.55
2023-12-17T07:51:54.731Z,47.92
2023-12-17T07:52:54.383Z,48.22
2023-12-17T07:53:54.424Z,47.88
2023-12-17T07:54:54.598Z,48.68
2023-12-17T07:55:54.377Z,48.83
2023-12-17T07:56:54.384Z,46.52
2023-12-17T07:57:54.366Z,47.46
2023-12-17T07:58:54.769Z,47.54
2023-12-17T07:59:54.367Z,46.92
2023-12-17T08:00:54.408Z,47.45
2023-12-17T08:01:54.378Z,48.07
2023-12-17T08:02:54.401Z,46.70
2023-12-17T08:03:54.397Z,46.49
2023-12-17T08:04:54.451Z,47.73
2023-12-17T08:05:54.445Z,48.24
2023-12-17T08:06:54.319Z,49.83
2023-12-17T08:07:54.312Z,49.19
2023-12-17T08:08:54.305Z,47.77
2023-12-17T08:09:54.271Z,47.78
2023-12-17T08:10:54.298Z,48.10
2023-12-17T08:11:54.371Z,48.65
2023-12-17T08:12:54.312Z,48.27
2023-12-17T08:13:54.244Z,49.69
2023-12-17T08:14:54.254Z,49.87
2023-12-17T08:15:54.250Z,49.55
2023-12-17T08:16:54.776Z,52.35
2023-12-17T08:17:54.381Z,48.38
2023-12-17T08:18:54.272Z,56.04
2023-12-17T08:19:54.200Z,53.61
2023-12-17T08:20:54.259Z,50.09
2023-12-17T08:21:54.470Z,49.15
2023-12-17T08:22:54.185Z,49.30
2023-12-17T08:23:54.275Z,48.01
2023-12-17T08:24:54.185Z,49.55
2023-12-17T08:25:54.172Z,50.83
2023-12-17T08:26:54.500Z,53.01
2023-12-17T08:27:54.165Z,48.80
2023-12-17T08:28:54.144Z,50.45
2023-12-17T08:29:54.237Z,50.83
2023-12-17T08:30:54.244Z,48.64
2023-12-17T08:31:54.176Z,50.31
2023-12-17T08:32:54.218Z,48.62
2023-12-17T08:33:54.462Z,48.89
2023-12-17T08:34:54.128Z,48.76
2023-12-17T08:35:54.140Z,48.32
2023-12-17T08:36:54.125Z,48.83
2023-12-17T08:37:54.093Z,49.43
2023-12-17T08:38:54.101Z,48.78
2023-12-17T08:39:54.171Z,49.76
2023-12-17T08:40:54.065Z,48.96
2023-12-17T08:41:54.122Z,49.18
2023-12-17T08:42:54.098Z,48.46
2023-12-17T08:43:54.053Z,48.90
2023-12-17T08:44:54.154Z,49.72
2023-12-17T08:45:54.086Z,49.29
2023-12-17T08:46:54.259Z,50.68
2023-12-17T08:47:54.362Z,49.55
2023-12-17T08:48:54.433Z,50.78
2023-12-17T08:49:54.078Z,48.68
2023-12-17T08:50:54.024Z,49.17
2023-12-17T08:51:53.987Z,50.50
2023-12-17T08:52:54.560Z,50.35
2023-12-17T08:53:54.019Z,51.34
2023-12-17T08:54:53.968Z,49.68
2023-12-17T08:55:53.989Z,50.71
2023-12-17T08:56:53.979Z,49.09
2023-12-17T08:57:53.957Z,49.57
2023-12-17T08:58:53.968Z,50.01
2023-12-17T08:59:53.980Z,49.98
2023-12-17T09:00:54.016Z,50.90
2023-12-17T09:01:53.917Z,48.33
2023-12-17T09:02:53.987Z,49.94
2023-12-17T09:03:56.789Z,51.28
2023-12-17T09:04:53.934Z,50.43
2023-12-17T09:05:53.944Z,50.67
2023-12-17T09:06:53.897Z,51.51
2023-12-17T09:07:53.994Z,52.59
2023-12-17T09:08:54.000Z,50.31
2023-12-17T09:09:53.885Z,49.96
2023-12-17T09:10:53.874Z,50.34
2023-12-17T09:11:53.894Z,51.11
2023-12-17T09:12:53.887Z,50.18
2023-12-17T09:13:53.850Z,50.36
2023-12-17T09:14:53.929Z,49.81
2023-12-17T09:15:53.848Z,50.42
2023-12-17T09:16:53.839Z,50.71
2023-12-17T09:17:53.974Z,53.28
2023-12-17T09:18:53.949Z,52.62
2023-12-17T09:19:53.848Z,51.52
2023-12-17T09:20:53.875Z,51.11
2023-12-17T09:21:53.797Z,49.82
2023-12-17T09:22:53.789Z,51.31
2023-12-17T09:23:53.808Z,50.51
2023-12-17T09:24:53.850Z,51.73
2023-12-17T09:25:53.791Z,50.60
2023-12-17T09:26:54.205Z,51.74
2023-12-17T09:27:53.782Z,52.94
2023-12-17T09:28:53.754Z,53.20
2023-12-17T09:29:53.830Z,52.42
2023-12-17T09:30:53.909Z,51.44
2023-12-17T09:31:53.724Z,50.83
2023-12-17T09:32:53.892Z,56.46
2023-12-17T09:33:53.781Z,52.40
2023-12-17T09:34:53.760Z,49.38
2023-12-17T09:35:53.744Z,51.05
2023-12-17T09:36:53.699Z,51.30
2023-12-17T09:37:53.691Z,50.67
2023-12-17T09:38:53.736Z,53.12
2023-12-17T09:39:53.672Z,50.57
2023-12-17T09:40:53.666Z,51.63
2023-12-17T09:41:53.683Z,53.89
2023-12-17T09:42:53.910Z,51.47
2023-12-17T09:43:53.694Z,52.44
2023-12-17T09:44:53.700Z,51.35
2023-12-17T09:45:53.631Z,53.73
2023-12-17T09:46:53.632Z,52.27
2023-12-17T09:47:53.728Z,52.89
2023-12-17T09:48:53.751Z,52.71
2023-12-17T09:49:53.638Z,52.17
2023-12-17T09:50:53.619Z,53.14
2023-12-17T09:51:53.747Z,50.27
2023-12-17T09:52:53.588Z,50.64
2023-12-17T09:53:53.671Z,51.47
2023-12-17T09:54:53.571Z,51.72
2023-12-17T09:55:53.561Z,50.76
2023-12-17T09:56:53.580Z,51.91
2023-12-17T09:57:53.544Z,50.84
2023-12-17T09:58:53.542Z,51.84
2023-12-17T09:59:53.662Z,52.95
2023-12-17T10:00:53.710Z,52.44
2023-12-17T10:01:53.685Z,52.05
2023-12-17T10:02:53.540Z,50.05
2023-12-17T10:03:53.565Z,49.42
2023-12-17T10:04:53.536Z,52.47
2023-12-17T10:05:53.611Z,50.60
2023-12-17T10:06:53.536Z,51.22
2023-12-17T10:07:53.481Z,50.80
2023-12-17T10:08:53.517Z,52.47
2023-12-17T10:09:53.471Z,51.74
2023-12-17T10:10:53.705Z,50.84
2023-12-17T10:11:53.470Z,51.25
2023-12-17T10:12:53.482Z,50.51
2023-12-17T10:13:53.445Z,52.39
2023-12-17T10:14:53.465Z,51.76
2023-12-17T10:15:53.464Z,53.92
2023-12-17T10:16:53.439Z,54.51
2023-12-17T10:17:53.772Z,56.53
2023-12-17T10:18:53.515Z,50.93
2023-12-17T10:19:53.549Z,51.89
2023-12-17T10:20:53.461Z,50.43
2023-12-17T10:21:53.426Z,53.19
2023-12-17T10:22:53.395Z,60.51
2023-12-17T10:23:53.433Z,50.78
2023-12-17T10:24:53.377Z,50.92
2023-12-17T10:25:53.373Z,51.28
2023-12-17T10:26:53.963Z,53.81
2023-12-17T10:27:53.356Z,51.63
2023-12-17T10:28:53.351Z,52.36
2023-12-17T10:29:53.526Z,51.06
2023-12-17T10:30:53.454Z,53.11
2023-12-17T10:31:53.363Z,52.98
2023-12-17T10:32:53.470Z,50.85
2023-12-17T10:33:53.493Z,51.68
2023-12-17T10:34:53.805Z,51.59
2023-12-17T10:35:53.325Z,51.16
2023-12-17T10:36:53.297Z,51.99
2023-12-17T10:37:53.313Z,52.11
2023-12-17T10:38:53.347Z,52.19
2023-12-17T10:39:53.363Z,51.00
2023-12-17T10:40:54.270Z,51.76
2023-12-17T10:41:53.379Z,50.78
2023-12-17T10:42:53.262Z,51.71
2023-12-17T10:43:53.280Z,50.63
2023-12-17T10:44:53.324Z,51.66
2023-12-17T10:45:53.242Z,52.06
2023-12-17T10:46:53.257Z,52.04
2023-12-17T10:47:53.322Z,53.62
2023-12-17T10:48:53.412Z,53.28
2023-12-17T10:49:53.308Z,54.36
2023-12-17T10:50:53.296Z,55.55
2023-12-17T10:51:53.202Z,53.52
2023-12-17T10:52:53.203Z,51.97
2023-12-17T10:53:53.217Z,51.67
2023-12-17T10:54:53.254Z,50.95
2023-12-17T10:55:53.231Z,51.69
2023-12-17T10:56:53.271Z,52.18
2023-12-17T10:57:53.165Z,50.49
2023-12-17T10:58:53.219Z,52.85
2023-12-17T10:59:53.153Z,51.40
2023-12-17T11:00:53.268Z,51.62
2023-12-17T11:01:53.172Z,52.81
2023-12-17T11:02:53.218Z,52.03
2023-12-17T11:03:53.234Z,52.23
2023-12-17T11:04:53.127Z,52.44
2023-12-17T11:05:53.145Z,52.85
2023-12-17T11:06:53.110Z,54.08
2023-12-17T11:07:53.185Z,52.86
2023-12-17T11:08:53.097Z,52.91
2023-12-17T11:09:53.722Z,51.70
2023-12-17T11:10:53.090Z,52.77
2023-12-17T11:11:53.094Z,53.44
2023-12-17T11:12:53.187Z,51.11
2023-12-17T11:13:53.066Z,51.73
2023-12-17T11:14:53.082Z,52.36
2023-12-17T11:15:53.552Z,51.77
2023-12-17T11:16:53.034Z,51.07
2023-12-17T11:17:53.550Z,51.07
2023-12-17T11:18:53.138Z,51.04
2023-12-17T11:19:53.092Z,50.70
2023-12-17T11:20:53.056Z,51.28
2023-12-17T11:21:53.002Z,51.64
2023-12-17T11:22:54.368Z,54.48
2023-12-17T11:23:53.029Z,53.20
2023-12-17T11:24:52.985Z,52.66
2023-12-17T11:25:53.016Z,52.47
2023-12-17T11:26:53.077Z,51.80
2023-12-17T11:27:52.974Z,51.80
2023-12-17T11:28:52.950Z,52.94
2023-12-17T11:29:53.031Z,54.36
2023-12-17T11:30:53.038Z,51.62
2023-12-17T11:31:52.960Z,53.71
2023-12-17T11:32:53.099Z,53.54
2023-12-17T11:33:53.039Z,56.31
2023-12-17T11:34:53.065Z,51.80
2023-12-17T11:35:52.992Z,53.14
2023-12-17T11:36:52.936Z,53.24
2023-12-17T11:37:52.890Z,53.79
2023-12-17T11:38:52.906Z,53.85
2023-12-17T11:39:53.270Z,55.20
2023-12-17T11:40:52.973Z,58.62
2023-12-17T11:41:52.921Z,55.69
2023-12-17T11:42:52.873Z,57.85
2023-12-17T11:43:52.861Z,55.15
2023-12-17T11:44:52.985Z,52.79
2023-12-17T11:45:52.864Z,52.82
2023-12-17T11:46:52.904Z,52.11
2023-12-17T11:47:53.088Z,54.65
2023-12-17T11:48:52.907Z,55.42
2023-12-17T11:49:52.852Z,55.22
2023-12-17T11:50:52.837Z,52.70
2023-12-17T11:51:52.885Z,52.01
2023-12-17T11:52:52.807Z,55.63
2023-12-17T11:53:52.837Z,54.94
2023-12-17T11:54:52.788Z,51.46
2023-12-17T11:55:52.791Z,52.14
2023-12-17T11:56:52.903Z,54.77
2023-12-17T11:57:53.227Z,55.30
2023-12-17T11:58:52.761Z,52.93
2023-12-17T11:59:53.131Z,53.53
2023-12-17T12:00:52.758Z,51.73
2023-12-17T12:01:52.738Z,54.93
2023-12-17T12:02:53.610Z,53.40
2023-12-17T12:03:52.753Z,52.74
2023-12-17T12:04:52.717Z,51.25
2023-12-17T12:05:52.789Z,53.27
2023-12-17T12:06:52.713Z,53.51
2023-12-17T12:07:52.905Z,52.15
2023-12-17T12:08:52.732Z,51.32
2023-12-17T12:09:52.681Z,51.74
2023-12-17T12:10:52.685Z,51.53
2023-12-17T12:11:52.718Z,52.94
2023-12-17T12:12:52.665Z,52.53
2023-12-17T12:13:52.690Z,51.94
2023-12-17T12:14:52.802Z,54.99
2023-12-17T12:15:52.646Z,56.06
2023-12-17T12:16:52.639Z,51.05
2023-12-17T12:17:52.759Z,51.47
2023-12-17T12:18:52.779Z,52.72
2023-12-17T12:19:52.762Z,52.66
2023-12-17T12:20:52.627Z,52.10
2023-12-17T12:21:52.615Z,54.99
2023-12-17T12:22:52.603Z,54.65
2023-12-17T12:23:52.859Z,52.86
2023-12-17T12:24:52.588Z,55.56
2023-12-17T12:25:52.581Z,54.68
2023-12-17T12:26:52.680Z,52.94
2023-12-17T12:27:52.590Z,52.29
2023-12-17T12:28:52.892Z,53.08
2023-12-17T12:29:52.563Z,52.70
2023-12-17T12:30:52.798Z,50.64
2023-12-17T12:31:52.534Z,53.28
2023-12-17T12:32:52.675Z,53.43
2023-12-17T12:33:52.811Z,51.69
2023-12-17T12:34:52.572Z,52.48
2023-12-17T12:35:52.562Z,52.18
2023-12-17T12:36:52.541Z,51.27
2023-12-17T12:37:52.498Z,55.96
2023-12-17T12:38:53.462Z,52.52
2023-12-17T12:40:02.170Z,53.04
2023-12-17T12:40:53.488Z,52.21
2023-12-17T12:41:52.631Z,50.92
2023-12-17T12:42:52.455Z,56.20
2023-12-17T12:43:52.455Z,53.50
2023-12-17T12:44:52.448Z,51.33
2023-12-17T12:45:52.487Z,51.49
2023-12-17T12:46:52.424Z,55.86
2023-12-17T12:47:52.619Z,53.58
2023-12-17T12:48:52.511Z,52.26
2023-12-17T12:49:52.487Z,52.62
2023-12-17T12:50:52.460Z,51.50
2023-12-17T12:51:52.446Z,52.02
2023-12-17T12:52:52.397Z,52.13